createdAt,value
2016-06-02T00:00:31.519Z,86.49
2016-06-02T00:01:31.554Z,86.68
2016-06-02T00:02:31.604Z,86.78
2016-06-02T00:03:31.637Z,87.26
2016-06-02T00:04:31.702Z,87.26
2016-06-02T00:05:31.720Z,86.97
2016-06-02T00:06:31.770Z,86.78
2016-06-02T00:07:31.804Z,86.88
2016-06-02T00:08:31.854Z,87.16
2016-06-02T00:09:32.154Z,86.97
2016-06-02T00:10:31.781Z,86.88
2016-06-02T00:11:32.017Z,87.26
2016-06-02T00:12:32.006Z,86.88
2016-06-02T00:13:32.054Z,86.78
2016-06-02T00:14:31.948Z,87.16
2016-06-02T00:15:31.981Z,86.88
2016-06-02T00:16:32.172Z,87.07
2016-06-02T00:17:32.222Z,86.88
2016-06-02T00:18:32.303Z,87.07
2016-06-02T00:19:32.164Z,86.68
2016-06-02T00:20:32.339Z,87.16
2016-06-02T00:21:32.405Z,86.78
2016-06-02T00:22:32.438Z,86.88
2016-06-02T00:23:32.456Z,87.74
2016-06-02T00:24:32.366Z,87.55
2016-06-02T00:25:32.571Z,87.45
2016-06-02T00:26:32.589Z,87.45
2016-06-02T00:27:32.624Z,87.45
2016-06-02T00:28:32.673Z,87.84
2016-06-02T00:29:32.755Z,87.84
2016-06-02T00:30:32.757Z,88.02
2016-06-02T00:31:32.806Z,87.93
2016-06-02T00:32:32.840Z,88.7
2016-06-02T00:33:32.874Z,88.02
2016-06-02T00:34:32.768Z,88.02
2016-06-02T00:35:32.957Z,88.89
2016-06-02T00:36:33.023Z,88.31
2016-06-02T00:37:33.057Z,88.22
2016-06-02T00:38:33.091Z,88.31
2016-06-02T00:39:33.140Z,88.51
2016-06-02T00:40:33.190Z,88.02
2016-06-02T00:41:33.208Z,88.22
2016-06-02T00:42:33.273Z,88.51
2016-06-02T00:43:33.323Z,88.6
2016-06-02T00:44:33.326Z,88.22
2016-06-02T00:45:33.375Z,88.7
2016-06-02T00:46:33.409Z,88.41
2016-06-02T00:47:33.459Z,88.7
2016-06-02T00:48:33.492Z,88.6
2016-06-02T00:49:33.542Z,88.41
2016-06-02T00:50:33.576Z,88.6
2016-06-02T00:51:33.626Z,88.7
2016-06-02T00:52:33.659Z,88.51
2016-06-02T00:53:33.694Z,88.6
2016-06-02T00:54:33.775Z,88.51
2016-06-02T00:55:33.917Z,88.51
2016-06-02T00:56:33.811Z,88.89
2016-06-02T00:57:33.735Z,88.41
2016-06-02T00:58:33.910Z,88.17
2016-06-02T00:59:33.944Z,88.6
2016-06-02T01:00:33.978Z,88.12
2016-06-02T01:01:34.058Z,88.98
2016-06-02T01:02:34.061Z,88.31
2016-06-02T01:03:34.111Z,88.7
2016-06-02T01:04:34.020Z,87.84
2016-06-02T01:05:34.194Z,88.02
2016-06-02T01:06:34.229Z,87.35
2016-06-02T01:07:34.278Z,87.93
2016-06-02T01:08:34.327Z,88.51
2016-06-02T01:09:34.752Z,88.02
2016-06-02T01:10:34.457Z,88.37
2016-06-02T01:11:34.445Z,88.22
2016-06-02T01:12:34.479Z,87.74
2016-06-02T01:13:34.513Z,87.84
2016-06-02T01:14:34.563Z,88.51
2016-06-02T01:15:34.675Z,88.12
2016-06-02T01:16:34.646Z,87.84
2016-06-02T01:17:34.681Z,87.93
2016-06-02T01:18:34.776Z,88.41
2016-06-02T01:19:34.795Z,88.02
2016-06-02T01:20:34.657Z,87.74
2016-06-02T01:21:34.847Z,88.02
2016-06-02T01:22:34.897Z,87.93
2016-06-02T01:23:34.931Z,88.02
2016-06-02T01:24:35.762Z,88.02
2016-06-02T01:25:35.436Z,87.93
2016-06-02T01:26:34.892Z,87.93
2016-06-02T01:27:35.098Z,87.93
2016-06-02T01:28:35.147Z,87.64
2016-06-02T01:29:35.181Z,87.55
2016-06-02T01:30:35.216Z,87.74
2016-06-02T01:31:35.264Z,87.35
2016-06-02T01:32:35.299Z,87.26
2016-06-02T01:33:35.395Z,87.35
2016-06-02T01:34:35.382Z,87.26
2016-06-02T01:35:35.432Z,87.84
2016-06-02T01:36:35.310Z,87.64
2016-06-02T01:37:35.343Z,87.78
2016-06-02T01:38:35.533Z,87.49
2016-06-02T01:39:36.240Z,87.26
2016-06-02T01:40:35.633Z,87.45
2016-06-02T01:41:35.666Z,87.55
2016-06-02T01:42:35.716Z,87.45
2016-06-02T01:43:35.751Z,87.35
2016-06-02T01:44:35.846Z,87.64
2016-06-02T01:45:35.740Z,87.35
2016-06-02T01:46:35.726Z,87.16
2016-06-02T01:47:35.932Z,87.16
2016-06-02T01:48:35.998Z,87.64
2016-06-02T01:49:36.000Z,87.55
2016-06-02T01:50:36.034Z,87.74
2016-06-02T01:51:36.084Z,87.55
2016-06-02T01:52:36.134Z,87.55
2016-06-02T01:53:36.167Z,87.59
2016-06-02T01:54:36.217Z,87.26
2016-06-02T01:55:36.891Z,87.07
2016-06-02T01:56:36.286Z,87.3
2016-06-02T01:57:36.333Z,87.55
2016-06-02T01:58:36.384Z,87.64
2016-06-02T01:59:36.418Z,87.16
2016-06-02T02:00:36.452Z,87.21
2016-06-02T02:01:36.501Z,87.26
2016-06-02T02:02:36.597Z,87.35
2016-06-02T02:03:36.585Z,87.55
2016-06-02T02:04:36.619Z,87.55
2016-06-02T02:05:36.652Z,87.84
2016-06-02T02:06:36.702Z,87.16
2016-06-02T02:07:36.751Z,86.68
2016-06-02T02:08:36.786Z,87.07
2016-06-02T02:09:36.836Z,86.88
2016-06-02T02:10:37.307Z,87.16
2016-06-02T02:11:36.904Z,87.74
2016-06-02T02:12:36.969Z,87.45
2016-06-02T02:13:37.018Z,87.55
2016-06-02T02:14:36.895Z,87.45
2016-06-02T02:15:37.070Z,87.45
2016-06-02T02:16:37.135Z,87.35
2016-06-02T02:17:37.170Z,87.55
2016-06-02T02:18:37.203Z,87.84
2016-06-02T02:19:37.081Z,87.84
2016-06-02T02:20:37.270Z,88.6
2016-06-02T02:21:37.337Z,88.27
2016-06-02T02:22:37.370Z,88.56
2016-06-02T02:23:37.404Z,88.65
2016-06-02T02:24:37.485Z,89.27
2016-06-02T02:25:37.504Z,89.61
2016-06-02T02:26:37.521Z,89.61
2016-06-02T02:27:37.414Z,89.51
2016-06-02T02:28:37.637Z,89.61
2016-06-02T02:29:37.499Z,89.51
2016-06-02T02:30:37.688Z,90.09
2016-06-02T02:31:37.738Z,89.71
2016-06-02T02:32:37.772Z,89.51
2016-06-02T02:33:37.822Z,90.28
2016-06-02T02:34:37.855Z,90
2016-06-02T02:35:37.890Z,90.09
2016-06-02T02:36:37.939Z,89.9
2016-06-02T02:37:37.974Z,90.19
2016-06-02T02:38:38.023Z,90.19
2016-06-02T02:39:38.056Z,89.9
2016-06-02T02:40:38.107Z,89.75
2016-06-02T02:41:38.140Z,89.23
2016-06-02T02:42:38.190Z,89.08
2016-06-02T02:43:38.270Z,89.27
2016-06-02T02:44:38.257Z,89.47
2016-06-02T02:45:38.307Z,89.08
2016-06-02T02:46:38.434Z,89.08
2016-06-02T02:47:38.391Z,89.18
2016-06-02T02:48:38.425Z,89.08
2016-06-02T02:49:38.489Z,89.37
2016-06-02T02:50:38.524Z,88.94
2016-06-02T02:51:38.558Z,89.08
2016-06-02T02:52:38.592Z,88.6
2016-06-02T02:53:38.641Z,89.27
2016-06-02T02:54:38.675Z,89.27
2016-06-02T02:55:39.022Z,89.27
2016-06-02T02:56:38.759Z,89.18
2016-06-02T02:57:38.839Z,89.08
2016-06-02T02:58:38.842Z,88.7
2016-06-02T02:59:38.876Z,88.6
2016-06-02T03:00:38.957Z,88.6
2016-06-02T03:01:38.991Z,88.89
2016-06-02T03:02:39.025Z,88.98
2016-06-02T03:03:39.044Z,88.41
2016-06-02T03:04:39.093Z,88.7
2016-06-02T03:05:39.126Z,88.41
2016-06-02T03:06:39.176Z,88.7
2016-06-02T03:07:39.210Z,88.41
2016-06-02T03:08:39.260Z,88.6
2016-06-02T03:09:39.903Z,88.7
2016-06-02T03:10:39.343Z,88.7
2016-06-02T03:11:39.408Z,88.6
2016-06-02T03:12:39.427Z,88.89
2016-06-02T03:13:39.446Z,88.7
2016-06-02T03:14:39.338Z,88.89
2016-06-02T03:15:39.560Z,88.79
2016-06-02T03:16:39.578Z,88.6
2016-06-02T03:17:39.612Z,88.6
2016-06-02T03:18:39.661Z,88.79
2016-06-02T03:19:39.695Z,88.51
2016-06-02T03:20:39.745Z,88.51
2016-06-02T03:21:39.779Z,88.22
2016-06-02T03:22:39.672Z,87.84
2016-06-02T03:23:39.878Z,88.12
2016-06-02T03:24:40.334Z,87.74
2016-06-02T03:25:40.430Z,88.08
2016-06-02T03:26:39.839Z,87.79
2016-06-02T03:27:40.030Z,88.37
2016-06-02T03:28:40.088Z,87.79
2016-06-02T03:29:40.163Z,87.79
2016-06-02T03:30:40.081Z,88.17
2016-06-02T03:31:40.297Z,88.17
2016-06-02T03:32:40.372Z,87.98
2016-06-02T03:33:40.415Z,87.88
2016-06-02T03:34:40.490Z,87.93
2016-06-02T03:35:40.362Z,87.88
2016-06-02T03:36:40.560Z,87.41
2016-06-02T03:37:40.619Z,87.5
2016-06-02T03:38:40.657Z,87.55
2016-06-02T03:39:40.787Z,87.5
2016-06-02T03:40:40.918Z,87.35
2016-06-02T03:41:40.831Z,87.45
2016-06-02T03:42:40.836Z,87.07
2016-06-02T03:43:40.887Z,87.21
2016-06-02T03:44:40.953Z,86.49
2016-06-02T03:45:40.801Z,86.93
2016-06-02T03:46:41.007Z,87.02
2016-06-02T03:47:41.043Z,86.93
2016-06-02T03:48:40.937Z,87.12
2016-06-02T03:49:41.127Z,86.93
2016-06-02T03:50:41.162Z,86.54
2016-06-02T03:51:41.211Z,86.58
2016-06-02T03:52:41.277Z,86.25
2016-06-02T03:53:41.296Z,86.45
2016-06-02T03:54:41.330Z,86.54
2016-06-02T03:55:41.411Z,86.74
2016-06-02T03:56:41.415Z,86.83
2016-06-02T03:57:41.449Z,86.49
2016-06-02T03:58:41.514Z,86.49
2016-06-02T03:59:41.564Z,86.78
2016-06-02T04:00:41.581Z,86.88
2016-06-02T04:01:41.476Z,86.58
2016-06-02T04:02:41.665Z,87.16
2016-06-02T04:03:41.700Z,86.68
2016-06-02T04:04:41.748Z,86.88
2016-06-02T04:05:41.798Z,87.16
2016-06-02T04:06:41.864Z,87.55
2016-06-02T04:07:41.867Z,87.45
2016-06-02T04:08:41.744Z,87.55
2016-06-02T04:09:41.950Z,87.55
2016-06-02T04:10:42.061Z,87.84
2016-06-02T04:11:42.033Z,87.93
2016-06-02T04:12:42.066Z,87.84
2016-06-02T04:13:42.132Z,87.84
2016-06-02T04:14:42.166Z,87.84
2016-06-02T04:15:42.200Z,88.31
2016-06-02T04:16:42.234Z,88.02
2016-06-02T04:17:42.315Z,88.12
2016-06-02T04:18:42.318Z,88.89
2016-06-02T04:19:42.351Z,88.89
2016-06-02T04:20:42.401Z,88.6
2016-06-02T04:21:42.435Z,88.89
2016-06-02T04:22:42.485Z,88.98
2016-06-02T04:23:42.518Z,89.37
2016-06-02T04:24:42.584Z,89.27
2016-06-02T04:25:43.040Z,89.47
2016-06-02T04:26:42.636Z,89.65
2016-06-02T04:27:42.685Z,90.14
2016-06-02T04:28:42.751Z,89.9
2016-06-02T04:29:42.770Z,90.57
2016-06-02T04:30:42.804Z,90.47
2016-06-02T04:31:42.900Z,91.05
2016-06-02T04:32:42.886Z,91.24
2016-06-02T04:33:42.920Z,91.63
2016-06-02T04:34:43.001Z,91.63
2016-06-02T04:35:43.003Z,92.39
2016-06-02T04:36:42.897Z,92.49
2016-06-02T04:37:43.103Z,92.39
2016-06-02T04:38:43.137Z,92.3
2016-06-02T04:39:43.186Z,92.39
2016-06-02T04:40:43.283Z,92.1
2016-06-02T04:41:43.255Z,92.2
2016-06-02T04:42:43.320Z,92.2
2016-06-02T04:43:43.353Z,92.2
2016-06-02T04:44:43.388Z,92.39
2016-06-02T04:45:43.468Z,92.1
2016-06-02T04:46:43.456Z,92.35
2016-06-02T04:47:43.505Z,92.06
2016-06-02T04:48:43.555Z,92.39
2016-06-02T04:49:43.619Z,92.39
2016-06-02T04:50:43.466Z,92.39
2016-06-02T04:51:43.671Z,92.3
2016-06-02T04:52:43.706Z,92.2
2016-06-02T04:53:43.755Z,91.82
2016-06-02T04:54:43.680Z,91.82
2016-06-02T04:55:43.839Z,91.91
2016-06-02T04:56:43.888Z,92.1
2016-06-02T04:57:43.923Z,91.63
2016-06-02T04:58:43.956Z,91.43
2016-06-02T04:59:44.006Z,91.63
2016-06-02T05:00:44.040Z,91.63
2016-06-02T05:01:44.324Z,91.63
2016-06-02T05:02:44.155Z,91.24
2016-06-02T05:03:44.173Z,92.01
2016-06-02T05:04:44.192Z,91.82
2016-06-02T05:05:44.241Z,91.72
2016-06-02T05:06:44.275Z,91.72
2016-06-02T05:07:44.324Z,91.91
2016-06-02T05:08:44.358Z,91.91
2016-06-02T05:09:44.408Z,91.34
2016-06-02T05:10:44.786Z,91.05
2016-06-02T05:11:44.475Z,91.24
2016-06-02T05:12:44.525Z,91.14
2016-06-02T05:13:44.575Z,91.05
2016-06-02T05:14:44.641Z,91.24
2016-06-02T05:15:44.643Z,90.86
2016-06-02T05:16:44.692Z,91.14
2016-06-02T05:17:44.726Z,91.24
2016-06-02T05:18:44.777Z,91.72
2016-06-02T05:19:45.013Z,91.63
2016-06-02T05:20:44.890Z,91.72
2016-06-02T05:21:46.128Z,91.53
2016-06-02T05:22:46.146Z,91.82
2016-06-02T05:23:45.711Z,91.34
2016-06-02T05:24:55.542Z,91.24
2016-06-02T05:25:45.998Z,91.53
2016-06-02T05:26:45.469Z,91.53
2016-06-02T05:27:45.332Z,91.82
2016-06-02T05:28:45.865Z,92.01
2016-06-02T05:29:46.118Z,91.72
2016-06-02T05:30:45.762Z,91.63
2016-06-02T05:31:46.342Z,91.53
2016-06-02T05:32:45.970Z,91.91
2016-06-02T05:33:45.879Z,91.63
2016-06-02T05:34:46.429Z,91.53
2016-06-02T05:35:46.540Z,91.53
2016-06-02T05:36:46.637Z,91.82
2016-06-02T05:37:46.843Z,91.53
2016-06-02T05:38:46.111Z,91.96
2016-06-02T05:39:46.067Z,91.63
2016-06-02T05:40:46.882Z,90.76
2016-06-02T05:41:46.509Z,91.05
2016-06-02T05:42:46.403Z,90.9
2016-06-02T05:43:46.749Z,91.09
2016-06-02T05:44:46.549Z,91.09
2016-06-02T05:45:46.488Z,90.71
2016-06-02T05:46:47.336Z,90.42
2016-06-02T05:47:46.885Z,90.61
2016-06-02T05:48:46.247Z,91
2016-06-02T05:49:46.688Z,89.94
2016-06-02T05:50:46.440Z,90.42
2016-06-02T05:51:47.068Z,90.23
2016-06-02T05:52:47.242Z,90.14
2016-06-02T05:53:46.777Z,90.23
2016-06-02T05:54:47.294Z,90.04
2016-06-02T05:55:46.969Z,90.04
2016-06-02T05:56:47.049Z,89.47
2016-06-02T05:57:46.990Z,89.47
2016-06-02T05:58:46.868Z,89.27
2016-06-02T05:59:47.074Z,89.18
2016-06-02T06:00:47.685Z,89.08
2016-06-02T06:01:46.813Z,88.98
2016-06-02T06:02:46.645Z,89.61
2016-06-02T06:03:46.631Z,89.41
2016-06-02T06:04:47.571Z,89.03
2016-06-02T06:05:47.698Z,89.03
2016-06-02T06:06:47.499Z,88.65
2016-06-02T06:07:47.283Z,88.93
2016-06-02T06:08:47.207Z,88.74
2016-06-02T06:09:46.882Z,88.26
2016-06-02T06:10:46.744Z,87.98
2016-06-02T06:11:46.950Z,87.68
2016-06-02T06:12:47.000Z,87.4
2016-06-02T06:13:47.033Z,87.49
2016-06-02T06:14:49.161Z,87.44
2016-06-02T06:15:48.867Z,87.54
2016-06-02T06:16:48.447Z,87.15
2016-06-02T06:17:48.341Z,87.15
2016-06-02T06:18:50.906Z,87.35
2016-06-02T06:19:54.128Z,87.15
2016-06-02T06:20:48.975Z,87.35
2016-06-02T06:21:48.007Z,87.15
2016-06-02T06:22:47.995Z,87.15
2016-06-02T06:23:47.686Z,87.15
2016-06-02T06:24:47.969Z,87.05
2016-06-02T06:25:47.657Z,86.96
2016-06-02T06:26:47.566Z,86.68
2016-06-02T06:27:47.837Z,86.77
2016-06-02T06:28:47.680Z,86.43
2016-06-02T06:29:48.077Z,85.52
2016-06-02T06:30:47.845Z,85.47
2016-06-02T06:31:47.879Z,86.24
2016-06-02T06:32:47.707Z,86.05
2016-06-02T06:33:47.866Z,86.24
2016-06-02T06:34:47.774Z,85.37
2016-06-02T06:35:48.015Z,85.18
2016-06-02T06:36:47.984Z,84.99
2016-06-02T06:37:48.457Z,85.22
2016-06-02T06:38:48.117Z,85.03
2016-06-02T06:39:48.134Z,85.03
2016-06-02T06:40:48.009Z,84.78
2016-06-02T06:41:48.203Z,84.06
2016-06-02T06:42:49.283Z,82.9
2016-06-02T06:43:48.380Z,82.71
2016-06-02T06:44:48.538Z,82.9
2016-06-02T06:45:48.370Z,83
2016-06-02T06:46:48.481Z,82.32
2016-06-02T06:47:48.453Z,81.94
2016-06-02T06:48:48.689Z,82.14
2016-06-02T06:49:48.536Z,81.56
2016-06-02T06:50:48.602Z,80.79
2016-06-02T06:51:49.197Z,81.65
2016-06-02T06:52:48.669Z,81.46
2016-06-02T06:53:48.719Z,80.98
2016-06-02T06:54:48.613Z,80.3
2016-06-02T06:55:48.662Z,79.92
2016-06-02T06:56:48.852Z,79.92
2016-06-02T06:57:48.885Z,80.21
2016-06-02T06:58:48.935Z,80.6
2016-06-02T06:59:49.704Z,79.92
2016-06-02T07:00:49.191Z,78.96
2016-06-02T07:01:49.178Z,79.15
2016-06-02T07:02:49.196Z,79.82
2016-06-02T07:03:49.152Z,80.3
2016-06-02T07:04:49.811Z,79.35
2016-06-02T07:05:49.751Z,79.35
2016-06-02T07:06:49.394Z,79.05
2016-06-02T07:07:50.553Z,80.11
2016-06-02T07:08:50.259Z,79.53
2016-06-02T07:09:49.590Z,79.92
2016-06-02T07:10:50.155Z,79.53
2016-06-02T07:11:49.549Z,79.25
2016-06-02T07:12:49.754Z,79.79
2016-06-02T07:13:49.600Z,80.36
2016-06-02T07:14:49.620Z,80.07
2016-06-02T07:15:49.700Z,79.6
2016-06-02T07:16:49.859Z,79.98
2016-06-02T07:17:50.018Z,79.88
2016-06-02T07:18:49.959Z,79.98
2016-06-02T07:19:49.897Z,80.07
2016-06-02T07:20:50.386Z,81.13
2016-06-02T07:21:50.264Z,80.84
2016-06-02T07:22:51.297Z,80.75
2016-06-02T07:23:51.128Z,81.09
2016-06-02T07:24:50.834Z,81.28
2016-06-02T07:25:52.289Z,81.32
2016-06-02T07:26:50.683Z,81.67
2016-06-02T07:27:50.374Z,81.42
2016-06-02T07:28:50.782Z,81.09
2016-06-02T07:29:50.785Z,81.9
2016-06-02T07:30:50.522Z,81.52
2016-06-02T07:31:50.946Z,81.23
2016-06-02T07:32:51.402Z,80.94
2016-06-02T07:33:51.171Z,81.42
2016-06-02T07:34:51.471Z,81.23
2016-06-02T07:35:50.520Z,81.52
2016-06-02T07:36:50.585Z,81.52
2016-06-02T07:37:51.759Z,81.23
2016-06-02T07:38:50.699Z,81.32
2016-06-02T07:39:50.546Z,81.71
2016-06-02T07:40:51.612Z,81.81
2016-06-02T07:41:50.770Z,82.09
2016-06-02T07:42:52.773Z,82.04
2016-06-02T07:43:51.931Z,81.94
2016-06-02T07:44:50.747Z,82.04
2016-06-02T07:45:50.843Z,81.27
2016-06-02T07:46:50.987Z,80.88
2016-06-02T07:47:51.068Z,80.6
2016-06-02T07:48:50.914Z,80.4
2016-06-02T07:49:51.104Z,79.82
2016-06-02T07:50:51.200Z,80.02
2016-06-02T07:51:51.219Z,80.3
2016-06-02T07:52:51.253Z,80.3
2016-06-02T07:53:51.131Z,80.6
2016-06-02T07:54:51.196Z,80.44
2016-06-02T07:55:52.230Z,79.96
2016-06-02T07:56:51.419Z,79.86
2016-06-02T07:57:51.454Z,79.77
2016-06-02T07:58:51.503Z,79.77
2016-06-02T07:59:51.569Z,79.77
2016-06-02T08:00:51.588Z,79.67
2016-06-02T08:01:51.636Z,79.38
2016-06-02T08:02:51.513Z,79.96
2016-06-02T08:03:52.141Z,79.77
2016-06-02T08:04:52.426Z,79.48
2016-06-02T08:05:52.225Z,80.06
2016-06-02T08:06:53.854Z,79.86
2016-06-02T08:07:54.121Z,79.77
2016-06-02T08:08:53.779Z,79.81
2016-06-02T08:09:53.502Z,79.81
2016-06-02T08:10:54.301Z,79.33
2016-06-02T08:11:55.084Z,79.13
2016-06-02T08:12:54.620Z,79.33
2016-06-02T08:13:54.356Z,79.71
2016-06-02T08:14:54.577Z,79.81
2016-06-02T08:15:53.752Z,80
2016-06-02T08:16:57.505Z,80
2016-06-02T08:17:53.898Z,80.1
2016-06-02T08:18:54.088Z,79.81
2016-06-02T08:19:55.201Z,80
2016-06-02T08:20:53.687Z,79.75
2016-06-02T08:21:53.300Z,79.85
2016-06-02T08:22:53.692Z,80.33
2016-06-02T08:23:53.961Z,79.85
2016-06-02T08:24:54.417Z,79.46
2016-06-02T08:25:53.873Z,78.69
2016-06-02T08:27:25.703Z,78.4
2016-06-02T08:27:54.472Z,78.79
2016-06-02T08:28:54.068Z,78.5
2016-06-02T08:29:54.290Z,78.4
2016-06-02T08:30:54.058Z,77.58
2016-06-02T08:31:53.717Z,76.67
2016-06-02T08:32:54.610Z,76.57
2016-06-02T08:33:54.519Z,75.71
2016-06-02T08:34:57.616Z,75.71
2016-06-02T08:35:54.744Z,75.61
2016-06-02T08:36:54.355Z,74.93
2016-06-02T08:37:53.295Z,74.97
2016-06-02T08:38:53.892Z,74.68
2016-06-02T08:39:53.660Z,75.16
2016-06-02T08:40:53.709Z,74.49
2016-06-02T08:41:54.806Z,73.82
2016-06-02T08:42:53.700Z,73.91
2016-06-02T08:43:54.452Z,73.33
2016-06-02T08:44:54.705Z,73.37
2016-06-02T08:45:54.692Z,72.89
2016-06-02T08:46:54.523Z,72.99
2016-06-02T08:47:55.041Z,72.6
2016-06-02T08:48:55.497Z,72.15
2016-06-02T08:49:54.750Z,71.67
2016-06-02T08:50:55.127Z,71.09
2016-06-02T08:51:55.350Z,70.16
2016-06-02T08:52:58.430Z,70.36
2016-06-02T08:53:54.667Z,69.1
2016-06-02T08:54:56.091Z,69.78
2016-06-02T08:55:58.500Z,68.52
2016-06-02T08:56:56.643Z,69.58
2016-06-02T08:57:56.490Z,69
2016-06-02T08:58:56.305Z,68.33
2016-06-02T08:59:59.449Z,68.84
2016-06-02T09:00:56.795Z,69.23
2016-06-02T09:01:56.329Z,68.55
2016-06-02T09:02:55.957Z,68.55
2016-06-02T09:03:55.568Z,68.84
2016-06-02T09:04:54.916Z,68.78
2016-06-02T09:05:57.090Z,68.4
2016-06-02T09:06:55.171Z,68.4
2016-06-02T09:07:56.689Z,68.3
2016-06-02T09:08:57.410Z,68.33
2016-06-02T09:10:00.398Z,67.46
2016-06-02T09:11:06.354Z,67.46
2016-06-02T09:11:58.949Z,66.98
2016-06-02T09:12:55.780Z,66.43
2016-06-02T09:13:56.892Z,64.79
2016-06-02T09:14:56.224Z,64.4
2016-06-02T09:15:54.974Z,64.08
2016-06-02T09:16:56.870Z,63.89
2016-06-02T09:17:55.684Z,64.18
2016-06-02T09:18:56.625Z,62.15
2016-06-02T09:19:55.909Z,62.63
2016-06-02T09:20:59.239Z,62.24
2016-06-02T09:21:55.520Z,61.63
2016-06-02T09:22:55.321Z,60.5
2016-06-02T09:23:55.245Z,60.96
2016-06-02T09:24:56.016Z,60.67
2016-06-02T09:25:55.830Z,60.47
2016-06-02T09:26:55.377Z,60.76
2016-06-02T09:27:55.428Z,60.47
2016-06-02T09:28:55.587Z,60.96
2016-06-02T09:29:55.714Z,60.69
2016-06-02T09:30:56.672Z,60.79
2016-06-02T09:31:55.766Z,60.41
2016-06-02T09:32:55.644Z,60.31
2016-06-02T09:33:55.694Z,59.34
2016-06-02T09:34:55.727Z,59.51
2016-06-02T09:35:55.793Z,60.38
2016-06-02T09:36:55.827Z,61.15
2016-06-02T09:37:55.892Z,60.86
2016-06-02T09:38:56.051Z,61.73
2016-06-02T09:39:56.132Z,60.38
2016-06-02T09:40:56.759Z,60.38
2016-06-02T09:41:55.903Z,59.89
2016-06-02T09:42:56.124Z,59.51
2016-06-02T09:43:56.143Z,59.7
2016-06-02T09:44:56.192Z,59.8
2016-06-02T09:45:56.273Z,60.57
2016-06-02T09:46:56.431Z,59.99
2016-06-02T09:47:56.326Z,59.25
2016-06-02T09:48:56.375Z,58.73
2016-06-02T09:49:56.440Z,59.53
2016-06-02T09:50:56.443Z,59.83
2016-06-02T09:51:56.523Z,60.21
2016-06-02T09:52:56.542Z,60.24
2016-06-02T09:53:56.606Z,58.4
2016-06-02T09:54:56.642Z,58.02
2016-06-02T09:55:57.034Z,58.31
2016-06-02T09:56:56.725Z,58.63
2016-06-02T09:57:56.789Z,58.44
2016-06-02T09:58:56.823Z,57.46
2016-06-02T09:59:56.873Z,57.4
2016-06-02T10:00:56.939Z,55.85
2016-06-02T10:01:56.972Z,56.34
2016-06-02T10:02:57.006Z,55.36
2016-06-02T10:03:57.087Z,55.56
2016-06-02T10:04:57.105Z,55.27
2016-06-02T10:05:57.139Z,55.27
2016-06-02T10:06:57.205Z,54.98
2016-06-02T10:07:57.238Z,54.49
2016-06-02T10:08:57.288Z,54.59
2016-06-02T10:09:57.337Z,55.27
2016-06-02T10:10:57.388Z,56.04
2016-06-02T10:11:57.780Z,54.01
2016-06-02T10:12:57.532Z,55.27
2016-06-02T10:13:57.504Z,53.81
2016-06-02T10:14:57.570Z,52.66
2016-06-02T10:15:57.604Z,52.08
2016-06-02T10:16:57.700Z,52.17
2016-06-02T10:17:57.734Z,52.75
2016-06-02T10:18:57.736Z,51.88
2016-06-02T10:19:57.787Z,51.88
2016-06-02T10:20:57.945Z,51.98
2016-06-02T10:21:57.885Z,53.14
2016-06-02T10:22:58.451Z,53.33
2016-06-02T10:23:58.063Z,54.01
2016-06-02T10:24:58.268Z,54.21
2016-06-02T10:25:58.115Z,54.79
2016-06-02T10:26:58.117Z,54.3
2016-06-02T10:27:58.168Z,53.94
2016-06-02T10:28:58.232Z,52.08
2016-06-02T10:29:58.267Z,51.68
2016-06-02T10:30:58.300Z,52.46
2016-06-02T10:31:58.381Z,52.66
2016-06-02T10:32:58.383Z,51.98
2016-06-02T10:33:58.433Z,52.46
2016-06-02T10:34:58.327Z,52.68
2016-06-02T10:35:58.580Z,52.49
2016-06-02T10:36:58.660Z,51.25
2016-06-02T10:37:58.616Z,49.7
2016-06-02T10:38:58.713Z,49.22
2016-06-02T10:39:58.730Z,47.79
2016-06-02T10:40:59.077Z,47.79
2016-06-02T10:41:58.845Z,46.51
2016-06-02T10:42:58.895Z,46.31
2016-06-02T10:43:58.913Z,47.77
2016-06-02T10:44:58.963Z,48.61
2016-06-02T10:45:59.028Z,48.44
2016-06-02T10:46:59.077Z,49.02
2016-06-02T10:47:59.112Z,49.15
2016-06-02T10:48:59.162Z,46.55
2016-06-02T10:49:59.242Z,45.31
2016-06-02T10:50:59.323Z,43.86
2016-06-02T10:51:59.420Z,43.49
2016-06-02T10:52:59.469Z,43.78
2016-06-02T10:53:59.425Z,42.83
2016-06-02T10:54:59.490Z,39.36
2016-06-02T10:55:59.586Z,38.79
2016-06-02T10:56:59.604Z,37.37
2016-06-02T10:57:59.638Z,36.43
2016-06-02T10:58:59.720Z,35.22
2016-06-02T11:00:01.191Z,32.82
2016-06-02T11:00:59.819Z,31.11
2016-06-02T11:02:00.008Z,29.68
2016-06-02T11:03:02.574Z,27.35
2016-06-02T11:03:59.842Z,26.5
2016-06-02T11:05:00.064Z,24.46
2016-06-02T11:06:00.003Z,24.06
2016-06-02T11:07:00.256Z,23.09
2016-06-02T11:08:00.291Z,21.33
2016-06-02T11:09:00.294Z,21.92
2016-06-02T11:10:00.374Z,22.13
2016-06-02T11:11:00.548Z,21.34
2016-06-02T11:12:00.457Z,20.78
2016-06-02T11:13:00.788Z,20.7
2016-06-02T11:14:00.618Z,19.74
2016-06-02T11:15:01.310Z,18.97
2016-06-02T11:16:01.984Z,18.69
2016-06-02T11:17:03.643Z,17.61
2016-06-02T11:18:02.286Z,17.32
2016-06-02T11:19:02.180Z,16.83
2016-06-02T11:20:01.838Z,16.64
2016-06-02T11:21:02.200Z,16.75
2016-06-02T11:22:01.281Z,17.24
2016-06-02T11:23:01.112Z,18.1
2016-06-02T11:24:01.240Z,17.99
2016-06-02T11:25:01.586Z,18.08
2016-06-02T11:26:01.292Z,17.98
2016-06-02T11:27:01.372Z,17.09
2016-06-02T11:28:01.422Z,17.59
2016-06-02T11:29:01.550Z,16.71
2016-06-02T11:30:01.631Z,17.4
2016-06-02T11:31:01.868Z,16.92
2016-06-02T11:32:01.636Z,17.03
2016-06-02T11:33:01.732Z,16.93
2016-06-02T11:34:01.767Z,16.84
2016-06-02T11:35:01.675Z,17.05
2016-06-02T11:36:01.975Z,15.37
2016-06-02T11:37:02.619Z,14.29
2016-06-02T11:38:02.230Z,13.81
2016-06-02T11:39:02.108Z,14.2
2016-06-02T11:40:02.299Z,14
2016-06-02T11:41:02.191Z,14.01
2016-06-02T11:42:03.460Z,13.72
2016-06-02T11:43:02.603Z,13.62
2016-06-02T11:44:02.450Z,14.53
2016-06-02T11:45:02.452Z,14.04
2016-06-02T11:46:03.033Z,14.24
2016-06-02T11:47:02.599Z,14.25
2016-06-02T11:48:02.804Z,13.85
2016-06-02T11:49:02.698Z,14.04
2016-06-02T11:50:02.606Z,14.42
2016-06-02T11:51:02.828Z,15.09
2016-06-02T11:52:02.877Z,16.46
2016-06-02T11:53:02.943Z,17.11
2016-06-02T11:54:02.993Z,18.87
2016-06-02T11:55:03.042Z,19.23
2016-06-02T11:56:03.779Z,19.9
2016-06-02T11:57:03.188Z,19.9
2016-06-02T11:58:03.222Z,20.1
2016-06-02T11:59:03.178Z,17.95
2016-06-02T12:00:03.336Z,18.15
2016-06-02T12:01:03.387Z,18.05
2016-06-02T12:02:03.451Z,18.52
2016-06-02T12:03:03.517Z,19.69
2016-06-02T12:04:03.581Z,20.85
2016-06-02T12:05:03.834Z,21.06
2016-06-02T12:06:03.727Z,21.28
2016-06-02T12:07:04.542Z,19.93
2016-06-02T12:08:04.530Z,19.55
2016-06-02T12:09:03.845Z,18.69
2016-06-02T12:10:04.036Z,18.5
2016-06-02T12:11:05.428Z,18.8
2016-06-02T12:12:05.384Z,18.69
2016-06-02T12:13:04.106Z,18.97
2016-06-02T12:14:04.233Z,19.44
2016-06-02T12:15:08.192Z,20.01
2016-06-02T12:16:04.302Z,19.9
2016-06-02T12:17:04.304Z,20.27
2016-06-02T12:18:04.369Z,20.06
2016-06-02T12:19:04.449Z,20.35
2016-06-02T12:20:04.484Z,19.67
2016-06-02T12:21:04.534Z,20.27
2016-06-02T12:22:04.583Z,19.61
2016-06-02T12:23:04.523Z,20.14
2016-06-02T12:24:04.588Z,19.77
2016-06-02T12:25:05.326Z,18.21
2016-06-02T12:26:04.829Z,16.84
2016-06-02T12:27:04.878Z,15.67
2016-06-02T12:28:04.943Z,14.9
2016-06-02T12:29:05.071Z,14.22
2016-06-02T12:30:05.058Z,13.53
2016-06-02T12:31:05.123Z,13.24
2016-06-02T12:32:06.375Z,11.66
2016-06-02T12:33:05.082Z,11.07
2016-06-02T12:34:06.600Z,12.06
2016-06-02T12:35:05.424Z,12.26
2016-06-02T12:36:06.893Z,12.27
2016-06-02T12:37:07.267Z,12.37
2016-06-02T12:38:06.062Z,11.98
2016-06-02T12:39:05.749Z,11.19
2016-06-02T12:40:08.598Z,11.38
2016-06-02T12:41:05.926Z,12.07
2016-06-02T12:42:05.955Z,11.96
2016-06-02T12:43:06.046Z,11.85
2016-06-02T12:44:06.699Z,13.01
2016-06-02T12:45:06.788Z,13.89
2016-06-02T12:46:06.231Z,14.36
2016-06-02T12:47:07.363Z,15.33
2016-06-02T12:48:06.368Z,16.71
2016-06-02T12:49:06.405Z,16.88
2016-06-02T12:50:06.474Z,17.75
2016-06-02T12:51:06.540Z,18.71
2016-06-02T12:52:06.637Z,19.59
2016-06-02T12:53:06.641Z,20.75
2016-06-02T12:54:06.567Z,21.92
2016-06-02T12:55:06.774Z,23.1
2016-06-02T12:56:06.855Z,22.61
2016-06-02T12:57:06.874Z,22.52